Time;durP1;ratioP1;P1;durP2;ratioP2;P2;SDS_P1;SDS_P2;PMS_P1;PMS_P2;Temp;Humidity;BMP_temperature;BMP_pressure;BME280_temperature;BME280_humidity;BME280_pressure;Samples;Min_cycle;Max_cycle;Signal;HPM_P1;HPM_P2
2021/09/27 00:13:55;;;;;;;;;;;;;;;;;;;;;
2021/09/27 01:08:51;;;;;;;;;;;;;;;;;;;;;
2021/09/27 01:25:53;;;;;;;4.90;4.47;;;23.40;58.30;;;;;;6080857;23;20476;-86
2021/09/27 01:46:46;;;;;;;;;;;;;;;;;;;;;
2021/09/27 02:17:30;;;;;;;4.30;3.90;;;23.50;58.30;;;;;;5967474;24;21062;-86
2021/09/27 02:24:16;;;;;;;;;;;;;;;;;;;;;
2021/09/27 03:16:28;;;;;;;4.00;3.70;;;23.40;58.30;;;;;;5836365;24;20408;-86
2021/09/27 04:31:03;;;;;;;;;;;;;;;;;;;;;
2021/09/27 04:34:26;;;;;;;;;;;;;;;;;;;;;
2021/09/27 04:37:44;;;;;;;;;;;;;;;;;;;;;
2021/09/27 05:05:14;;;;;;;6.23;4.53;;;23.40;58.40;;;;;;6083696;23;20394;-86
2021/09/27 05:07:58;;;;;;;5.53;5.03;;;23.40;58.50;;;;;;6121943;23;20388;-85
2021/09/27 05:17:52;;;;;;;5.27;4.77;;;23.40;58.70;;;;;;6169508;23;20460;-85
2021/09/27 05:41:22;;;;;;;6.80;5.77;;;23.40;59.90;;;;;;5969238;24;20471;-85
2021/09/27 05:48:07;;;;;;;7.00;6.30;;;23.30;59.50;;;;;;6024557;23;20368;-85
2021/09/27 05:58:47;;;;;;;;;;;;;;;;;;;;;
2021/09/27 06:01:09;;;;;;;6.47;5.87;;;23.40;59.50;;;;;;6022316;23;20384;-86
2021/09/27 06:04:15;;;;;;;6.43;5.93;;;23.30;59.20;;;;;;6027077;23;20394;-84
2021/09/27 06:10:35;;;;;;;9.10;5.43;;;23.40;59.10;;;;;;6057870;23;20977;-84
2021/09/27 06:20:05;;;;;;;7.40;6.80;;;23.40;59.40;;;;;;6143347;23;20397;-84
2021/09/27 06:26:22;;;;;;;6.83;5.30;;;23.40;59.30;;;;;;6147007;23;20376;-85
2021/09/27 06:29:28;;;;;;;6.97;6.20;;;23.40;59.30;;;;;;6143822;23;20488;-85
2021/09/27 06:39:22;;;;;;;;;;;;;;;;;;;;;
2021/09/27 06:42:01;;;;;;;6.50;5.97;;;23.30;59.50;;;;;;5916233;24;20809;-85
2021/09/27 06:45:00;;;;;;;7.10;6.40;;;23.40;59.40;;;;;;5871438;24;20441;-85
2021/09/27 06:47:45;;;;;;;6.40;5.60;;;23.40;59.30;;;;;;5861196;24;20386;-85
2021/09/27 06:51:10;;;;;;;6.07;5.47;;;23.40;59.40;;;;;;5840793;24;20444;-85
2021/09/27 06:54:35;;;;;;;8.77;5.80;;;23.50;59.30;;;;;;5861793;24;20397;-85
2021/09/27 06:57:47;;;;;;;6.50;5.90;;;23.40;59.40;;;;;;5954051;24;20386;-85
2021/09/27 07:10:57;;;;;;;6.97;6.30;;;23.40;59.80;;;;;;6029760;23;20519;-85
2021/09/27 07:13:52;;;;;;;7.67;6.67;;;23.30;59.50;;;;;;6004029;23;20401;-85
2021/09/27 07:17:07;;;;;;;7.03;6.43;;;23.40;59.50;;;;;;6053331;23;20448;-85
2021/09/27 07:20:14;;;;;;;8.10;7.40;;;23.40;59.80;;;;;;6204556;23;20528;-85
2021/09/27 07:23:27;;;;;;;;;;;;;;;;;;;;;
2021/09/27 07:43:20;;;;;;;8.03;7.33;;;23.30;60.40;;;;;;6050381;23;20439;-84
2021/09/27 07:46:15;;;;;;;;;;;;;;;;;;;;;
2021/09/27 07:49:14;;;;;;;;;;;;;;;;;;;;;
2021/09/27 07:59:06;;;;;;;;;;;;;;;;;;;;;
2021/09/27 08:12:44;;;;;;;8.03;7.33;;;23.40;60.10;;;;;;5823435;24;20439;-86
2021/09/27 08:46:33;;;;;;;8.60;7.80;;;23.40;59.80;;;;;;5851426;24;20376;-86
2021/09/27 09:00:34;;;;;;;8.67;7.87;;;23.40;59.80;;;;;;5938740;24;20392;-85
2021/09/27 09:13:45;;;;;;;8.77;7.90;;;23.40;59.70;;;;;;5970080;24;20382;-86
2021/09/27 09:34:10;;;;;;;;;;;;;;;;;;;;;
2021/09/27 10:24:42;;;;;;;7.37;6.73;;;23.50;59.60;;;;;;5862514;24;20377;-86
2021/09/27 10:31:15;;;;;;;;;;;;;;;;;;;;;
2021/09/27 10:59:03;;;;;;;10.77;7.50;;;23.60;61.10;;;;;;6021903;23;20383;-87
2021/09/27 12:34:11;;;;;;;7.23;6.63;;;23.70;61.10;;;;;;6050928;23;20423;-86
2021/09/27 13:42:17;;;;;;;5.33;4.90;;;23.80;59.70;;;;;;6001914;24;20372;-85
2021/09/27 13:45:10;;;;;;;4.63;4.20;;;23.80;59.70;;;;;;6000160;24;20468;-85
2021/09/27 13:47:37;;;;;;;4.63;4.13;;;23.80;59.80;;;;;;5964266;24;20386;-85
2021/09/27 13:54:11;;;;;;;5.40;3.83;;;23.80;59.70;;;;;;6048341;23;20394;-85
2021/09/27 13:56:48;;;;;;;4.30;3.57;;;23.80;59.70;;;;;;6059082;23;20385;-85
2021/09/27 13:59:24;;;;;;;4.37;3.97;;;23.70;59.60;;;;;;6054806;23;20434;-86
2021/09/27 14:02:01;;;;;;;4.33;3.93;;;23.80;59.70;;;;;;6179530;23;20409;-85
2021/09/27 14:04:30;;;;;;;4.67;4.27;;;23.80;59.70;;;;;;6202910;23;20379;-85
2021/09/27 14:20:22;;;;;;;5.00;4.50;;;23.80;59.70;;;;;;6265682;23;20416;-86
2021/09/27 14:23:46;;;;;;;;;;;;;;;;;;;;;
2021/09/27 14:26:19;;;;;;;6.00;4.47;;;23.80;59.70;;;;;;6257802;23;20381;-85
2021/09/27 14:42:17;;;;;;;4.73;4.23;;;23.80;59.60;;;;;;6265292;23;20353;-85
2021/09/27 14:51:49;;;;;;;3.93;3.60;;;23.80;59.60;;;;;;6113437;23;20393;-85
2021/09/27 15:00:53;;;;;;;4.50;4.10;;;23.80;59.60;;;;;;6113943;23;20398;-85
2021/09/27 15:03:54;;;;;;;4.30;3.90;;;23.70;59.50;;;;;;6114056;23;20351;-85
2021/09/27 15:13:18;;;;;;;4.53;3.87;;;23.80;59.50;;;;;;6112975;23;20377;-86
2021/09/27 15:23:09;;;;;;;4.20;3.67;;;23.80;59.60;;;;;;6056942;23;20406;-87
2021/09/27 15:33:23;;;;;;;6.17;4.27;;;23.80;59.80;;;;;;6139124;23;20486;-87
2021/09/27 15:47:04;;;;;;;;;;;;;;;;;;;;;
2021/09/27 15:50:22;;;;;;;4.77;4.17;;;23.70;59.80;;;;;;5965676;24;20449;-86
2021/09/27 16:03:45;;;;;;;5.10;4.23;;;23.70;59.90;;;;;;5963471;24;20374;-86
2021/09/27 16:06:51;;;;;;;4.33;3.93;;;23.70;59.80;;;;;;5993061;23;20400;-85
2021/09/27 16:13:23;;;;;;;4.50;4.10;;;23.70;59.60;;;;;;5964341;23;20358;-86
2021/09/27 16:16:40;;;;;;;;;;;;;;;;;;;;;
2021/09/27 16:22:43;;;;;;;3.90;3.60;;;23.70;59.60;;;;;;5967799;24;20462;-86
2021/09/27 16:26:16;;;;;;;4.30;3.70;;;23.70;59.60;;;;;;5966488;24;20433;-86
2021/09/27 16:29:31;;;;;;;6.03;4.07;;;23.60;59.50;;;;;;5996942;23;20438;-87
2021/09/27 16:32:12;;;;;;;5.50;3.83;;;23.60;59.50;;;;;;6044643;23;20399;-87
2021/09/27 16:35:21;;;;;;;4.03;3.60;;;23.60;59.50;;;;;;6051719;23;20427;-86
2021/09/27 16:38:11;;;;;;;4.17;3.77;;;23.60;59.40;;;;;;6067777;23;20852;-87
2021/09/27 16:41:16;;;;;;;;;;;;;;;;;;;;;
2021/09/27 16:51:10;;;;;;;;;;;;;;;;;;;;;
2021/09/27 16:53:40;;;;;;;4.40;3.80;;;23.60;59.50;;;;;;6111954;23;20809;-84
2021/09/27 16:56:12;;;;;;;4.33;3.93;;;23.60;59.50;;;;;;6088939;23;20388;-84
2021/09/27 16:58:46;;;;;;;4.03;3.60;;;23.60;59.50;;;;;;6088670;23;20406;-83
2021/09/27 17:01:32;;;;;;;4.30;3.90;;;23.60;59.40;;;;;;6113474;23;20374;-83
2021/09/27 17:04:03;;;;;;;4.40;4.00;;;23.60;59.40;;;;;;6115567;23;20366;-83
2021/09/27 17:06:52;;;;;;;4.70;4.20;;;23.60;59.40;;;;;;6088663;23;20386;-84
2021/09/27 17:09:59;;;;;;;4.10;3.70;;;23.60;59.40;;;;;;6114260;23;20505;-84
2021/09/27 17:12:32;;;;;;;5.50;4.20;;;23.60;59.40;;;;;;6089042;23;20388;-83
2021/09/27 17:21:39;;;;;;;3.63;3.33;;;23.60;59.40;;;;;;6117899;23;20385;-83
2021/09/27 17:27:19;;;;;;;3.67;3.37;;;23.60;59.50;;;;;;6133167;23;20409;-84
2021/09/27 17:30:09;;;;;;;3.70;3.30;;;23.50;59.40;;;;;;6120876;23;20436;-84
2021/09/27 17:33:04;;;;;;;4.03;3.40;;;23.50;59.40;;;;;;6099629;23;20385;-84
2021/09/27 17:36:06;;;;;;;3.97;3.67;;;23.60;59.40;;;;;;6140174;23;20380;-83
2021/09/27 17:38:34;;;;;;;4.00;3.60;;;23.50;59.40;;;;;;6094410;23;20409;-85
2021/09/27 17:44:25;;;;;;;3.50;3.20;;;23.50;59.50;;;;;;6106218;23;20414;-85
2021/09/27 17:46:55;;;;;;;4.33;3.87;;;23.50;59.50;;;;;;6081931;23;20377;-84
2021/09/27 17:49:21;;;;;;;4.17;3.77;;;23.50;59.40;;;;;;6083044;23;20449;-84
2021/09/27 17:52:04;;;;;;;;;;;;;;;;;;;;;
2021/09/27 18:01:25;;;;;;;4.57;3.07;;;23.50;59.30;;;;;;6113674;23;20430;-82
2021/09/27 18:04:12;;;;;;;5.50;3.97;;;23.50;59.60;;;;;;6090687;23;20369;-83
2021/09/27 18:06:50;;;;;;;3.70;3.37;;;23.50;59.60;;;;;;6104767;23;20408;-83
2021/09/27 18:09:21;;;;;;;4.70;3.77;;;23.50;59.60;;;;;;6094763;23;20420;-82
2021/09/27 18:11:57;;;;;;;3.60;3.30;;;23.50;59.70;;;;;;6092360;23;20386;-83
2021/09/27 18:14:24;;;;;;;5.97;3.17;;;23.60;59.80;;;;;;6095330;23;20430;-83
2021/09/27 18:17:04;;;;;;;5.17;3.40;;;23.60;59.80;;;;;;6117146;23;20381;-84
2021/09/27 18:19:51;;;;;;;5.00;3.43;;;23.60;60.00;;;;;;6116195;23;20362;-86
2021/09/27 18:22:23;;;;;;;3.60;3.30;;;23.70;59.80;;;;;;6090802;23;20445;-85
2021/09/27 18:25:02;;;;;;;;;;;;;;;;;;;;;
2021/09/27 18:27:30;;;;;;;4.53;3.73;;;23.60;59.60;;;;;;6116416;23;20443;-87
2021/09/27 18:29:56;;;;;;;4.27;3.13;;;23.60;59.60;;;;;;6111172;23;20410;-87
2021/09/27 18:32:36;;;;;;;4.63;3.83;;;23.60;59.70;;;;;;6111057;23;20422;-86
2021/09/27 18:35:09;;;;;;;3.80;3.50;;;23.60;59.70;;;;;;6112246;23;20361;-87
2021/09/27 18:38:21;;;;;;;4.83;3.37;;;23.60;59.80;;;;;;6086803;23;20381;-87
2021/09/27 18:41:02;;;;;;;4.13;3.73;;;23.60;59.80;;;;;;6070344;23;20427;-87
2021/09/27 18:43:34;;;;;;;5.33;3.40;;;23.50;59.80;;;;;;6140660;23;20481;-87
2021/09/27 18:46:04;;;;;;;4.00;3.50;;;23.50;59.80;;;;;;6141051;23;20401;-88
2021/09/27 18:48:35;;;;;;;3.77;3.40;;;23.50;59.90;;;;;;6092205;23;20385;-87
2021/09/27 18:51:06;;;;;;;4.97;3.30;;;23.50;59.90;;;;;;6117828;23;20416;-87
2021/09/27 18:53:43;;;;;;;3.93;3.57;;;23.50;60.00;;;;;;6094622;23;20416;-87
2021/09/27 18:56:09;;;;;;;3.67;3.37;;;23.50;60.10;;;;;;6116741;23;20369;-88
2021/09/27 18:58:37;;;;;;;4.53;3.10;;;23.40;60.60;;;;;;6141116;23;20373;-87
2021/09/27 19:01:08;;;;;;;4.03;3.63;;;23.50;60.70;;;;;;6115474;23;20390;-87
2021/09/27 19:03:40;;;;;;;3.77;3.47;;;23.40;60.60;;;;;;6115358;23;20385;-88
2021/09/27 19:06:17;;;;;;;3.83;3.50;;;23.40;60.40;;;;;;6119045;23;20385;-87
2021/09/27 19:08:53;;;;;;;3.50;3.20;;;23.40;61.20;;;;;;6144502;23;20361;-86
2021/09/27 19:14:17;;;;;;;5.83;3.50;;;23.40;60.20;;;;;;6145106;23;20365;-86
2021/09/27 19:16:53;;;;;;;4.10;3.70;;;23.40;60.10;;;;;;6141039;23;20380;-86
2021/09/27 19:19:40;;;;;;;;;;;;;;;;;;;;;
2021/09/27 19:22:06;;;;;;;4.07;3.67;;;23.40;60.10;;;;;;6143179;23;20384;-87
2021/09/27 19:28:18;;;;;;;3.30;3.00;;;23.40;60.20;;;;;;6139289;23;20140;-87
2021/09/27 19:33:34;;;;;;;4.30;3.90;;;23.40;60.30;;;;;;6122487;23;20382;-87
2021/09/27 19:36:14;;;;;;;4.10;3.53;;;23.40;60.50;;;;;;6204216;23;20388;-87
2021/09/27 19:38:54;;;;;;;4.30;3.90;;;23.40;60.20;;;;;;6204140;23;20394;-87
2021/09/27 19:41:49;;;;;;;3.80;3.40;;;23.40;60.10;;;;;;6216014;23;20722;-87
2021/09/27 19:44:20;;;;;;;4.13;3.67;;;23.40;60.20;;;;;;6230450;23;20390;-87
2021/09/27 19:46:51;;;;;;;4.80;3.90;;;23.30;60.20;;;;;;6230744;23;20413;-86
2021/09/27 19:49:23;;;;;;;5.17;4.10;;;23.40;60.10;;;;;;6230081;23;20183;-87
2021/09/27 19:52:17;;;;;;;4.60;3.73;;;23.40;60.00;;;;;;6230964;23;20388;-86
2021/09/27 19:54:55;;;;;;;5.20;3.93;;;23.40;60.40;;;;;;6230012;23;20375;-86
2021/09/27 19:57:39;;;;;;;4.03;3.70;;;23.30;60.10;;;;;;6230255;23;20825;-86
2021/09/27 20:00:07;;;;;;;4.37;3.97;;;23.30;60.30;;;;;;6230885;23;20390;-86
2021/09/27 20:02:46;;;;;;;3.50;3.20;;;23.30;60.90;;;;;;6232201;23;20366;-86
2021/09/27 20:05:24;;;;;;;4.00;3.60;;;23.30;60.20;;;;;;6231228;23;20457;-86
2021/09/27 20:08:03;;;;;;;4.70;3.70;;;23.30;60.20;;;;;;6230943;23;20359;-86
2021/09/27 20:10:36;;;;;;;4.10;3.70;;;23.30;60.30;;;;;;6230024;23;20802;-86
2021/09/27 20:13:11;;;;;;;5.43;4.10;;;23.30;61.10;;;;;;6230572;23;20875;-85
2021/09/27 20:15:43;;;;;;;6.90;4.00;;;23.30;60.40;;;;;;6230488;23;20868;-85
2021/09/27 20:18:25;;;;;;;;;;;;;;;;;;;;;
2021/09/27 20:21:19;;;;;;;4.00;3.60;;;23.30;60.30;;;;;;6233972;23;20682;-85
2021/09/27 20:30:42;;;;;;;6.37;4.07;;;23.30;60.30;;;;;;6205028;22;21396;-85
2021/09/27 20:33:21;;;;;;;4.00;3.50;;;23.30;60.40;;;;;;6179391;23;20383;-85
2021/09/27 20:35:52;;;;;;;4.30;3.83;;;23.30;60.40;;;;;;6175870;23;20403;-83
2021/09/27 20:38:24;;;;;;;4.80;3.77;;;23.30;60.20;;;;;;6179392;23;20383;-84
2021/09/27 20:40:53;;;;;;;4.37;3.73;;;23.30;60.10;;;;;;6178237;23;20395;-84
2021/09/27 20:43:27;;;;;;;4.10;3.80;;;23.30;60.10;;;;;;6200456;23;20376;-84
2021/09/27 20:45:55;;;;;;;4.17;3.83;;;23.30;60.00;;;;;;6178134;23;20421;-85
2021/09/27 20:48:33;;;;;;;4.00;3.60;;;23.30;60.40;;;;;;6179020;23;20733;-85
2021/09/27 20:51:04;;;;;;;4.50;4.10;;;23.30;60.10;;;;;;6201225;23;20451;-85
2021/09/27 20:53:49;;;;;;;4.07;3.77;;;23.30;60.00;;;;;;6203637;23;20359;-85
2021/09/27 20:56:22;;;;;;;4.43;4.03;;;23.30;59.90;;;;;;6204220;23;20403;-85
2021/09/27 20:59:12;;;;;;;3.77;3.40;;;23.40;60.00;;;;;;6153382;23;20450;-84
2021/09/27 21:01:38;;;;;;;6.07;3.77;;;23.40;59.90;;;;;;6178087;23;20384;-84
2021/09/27 21:04:12;;;;;;;4.00;3.60;;;23.30;59.90;;;;;;6232788;23;20409;-83
2021/09/27 21:06:44;;;;;;;4.20;3.80;;;23.30;60.60;;;;;;6234323;23;20720;-84
2021/09/27 21:09:16;;;;;;;4.20;3.80;;;23.40;60.00;;;;;;6234365;23;20464;-83
2021/09/27 21:11:53;;;;;;;3.97;3.67;;;23.30;59.90;;;;;;6234107;23;20382;-84
2021/09/27 21:14:34;;;;;;;3.40;2.93;;;23.40;59.90;;;;;;6234290;23;20363;-84
2021/09/27 21:20:06;;;;;;;3.67;3.37;;;23.30;59.80;;;;;;6229504;23;20414;-84
2021/09/27 21:22:47;;;;;;;3.60;3.30;;;23.30;59.90;;;;;;6236886;23;20394;-84
2021/09/27 21:25:23;;;;;;;4.00;3.70;;;23.30;59.80;;;;;;6238585;23;20361;-85
2021/09/27 21:27:51;;;;;;;6.17;3.30;;;23.30;59.80;;;;;;6212498;23;20409;-84
2021/09/27 21:30:27;;;;;;;3.50;3.20;;;23.30;59.80;;;;;;6238385;23;20414;-85
2021/09/27 21:32:58;;;;;;;7.10;3.93;;;23.30;59.80;;;;;;6236421;23;20386;-84
2021/09/27 21:35:29;;;;;;;5.20;3.40;;;23.30;59.80;;;;;;6236431;23;20379;-84
2021/09/27 21:37:56;;;;;;;4.60;4.20;;;23.30;59.80;;;;;;6235748;23;20371;-84
2021/09/27 21:40:23;;;;;;;4.40;4.00;;;23.30;59.80;;;;;;6236984;23;20413;-83
2021/09/27 21:42:49;;;;;;;3.47;3.17;;;23.40;59.80;;;;;;6241583;23;20475;-85
2021/09/27 21:45:28;;;;;;;;;;;;;;;;;;;;;
2021/09/27 21:50:50;;;;;;;3.77;3.40;;;23.30;60.00;;;;;;6269660;23;20431;-85
2021/09/27 21:53:24;;;;;;;3.87;3.47;;;23.30;59.90;;;;;;6241007;23;20370;-83
2021/09/27 21:56:02;;;;;;;3.97;3.60;;;23.30;59.80;;;;;;6240899;23;20381;-83
2021/09/27 21:58:33;;;;;;;6.77;4.27;;;23.30;59.80;;;;;;6241221;23;20377;-83
2021/09/27 22:01:05;;;;;;;3.77;3.30;;;23.40;59.80;;;;;;6240742;23;20377;-83
2021/09/27 22:03:31;;;;;;;3.80;3.40;;;23.30;59.70;;;;;;6241753;23;20389;-84
2021/09/27 22:06:01;;;;;;;3.90;3.53;;;23.30;59.70;;;;;;6240895;23;20392;-85
2021/09/27 22:08:39;;;;;;;3.43;3.13;;;23.30;59.70;;;;;;6240353;23;20376;-85
2021/09/27 22:18:04;;;;;;;5.03;3.77;;;23.40;59.80;;;;;;6085895;23;20379;-84
2021/09/27 22:20:35;;;;;;;4.17;3.77;;;23.30;60.00;;;;;;6085723;23;20955;-85
2021/09/27 22:23:03;;;;;;;4.00;3.60;;;23.30;59.90;;;;;;6086346;23;20382;-85
2021/09/27 22:25:36;;;;;;;4.90;4.20;;;23.30;59.80;;;;;;6085456;23;20386;-85
2021/09/27 22:28:06;;;;;;;3.57;3.27;;;23.30;59.80;;;;;;6086355;23;20358;-85
2021/09/27 22:30:36;;;;;;;4.23;3.57;;;23.30;59.70;;;;;;6085389;23;20446;-85
2021/09/27 22:33:17;;;;;;;3.60;3.30;;;23.30;59.60;;;;;;6084794;23;20434;-85
2021/09/27 22:35:45;;;;;;;3.57;3.23;;;23.40;59.60;;;;;;6085527;23;20378;-85
2021/09/27 22:38:13;;;;;;;3.70;3.40;;;23.40;59.70;;;;;;6085105;23;20379;-85
2021/09/27 22:40:55;;;;;;;3.63;3.33;;;23.40;59.60;;;;;;6085418;23;20407;-85
2021/09/27 22:43:34;;;;;;;;;;;;;;;;;;;;;
2021/09/27 22:46:06;;;;;;;3.97;3.60;;;23.40;59.50;;;;;;6086800;23;20390;-85
2021/09/27 22:48:54;;;;;;;3.83;3.23;;;23.40;59.50;;;;;;6086232;23;20379;-85
2021/09/27 22:51:20;;;;;;;2.83;2.63;;;23.40;59.40;;;;;;6157863;23;20415;-84
2021/09/27 22:53:48;;;;;;;4.50;4.10;;;23.40;59.40;;;;;;6237017;23;20374;-84
2021/09/27 22:56:14;;;;;;;4.40;4.00;;;23.40;59.60;;;;;;6237019;23;20381;-84
2021/09/27 22:58:43;;;;;;;4.20;3.80;;;23.40;59.80;;;;;;6236994;23;20382;-84
2021/09/27 23:01:09;;;;;;;4.00;3.60;;;23.40;59.80;;;;;;6237387;23;20412;-85
2021/09/27 23:03:35;;;;;;;3.97;3.60;;;23.40;59.60;;;;;;6211757;23;20389;-85
2021/09/27 23:06:03;;;;;;;4.37;3.60;;;23.40;59.50;;;;;;6263483;23;20370;-85
2021/09/27 23:08:29;;;;;;;3.93;3.63;;;23.40;59.50;;;;;;6237616;23;20155;-85
2021/09/27 23:10:58;;;;;;;3.77;3.47;;;23.40;59.40;;;;;;6237161;23;20452;-85
2021/09/27 23:13:43;;;;;;;3.90;3.60;;;23.40;59.40;;;;;;6264277;23;20673;-85
2021/09/27 23:16:14;;;;;;;3.50;3.20;;;23.40;59.30;;;;;;6238080;23;20377;-85
2021/09/27 23:19:01;;;;;;;3.70;3.40;;;23.40;59.30;;;;;;6236742;23;20412;-84
2021/09/27 23:21:28;;;;;;;4.00;3.60;;;23.40;59.30;;;;;;6237477;23;20384;-84
2021/09/27 23:23:55;;;;;;;4.20;3.80;;;23.40;59.30;;;;;;6263668;23;20366;-84
2021/09/27 23:26:27;;;;;;;5.07;4.57;;;23.40;59.40;;;;;;6262356;23;20401;-88
2021/09/27 23:28:53;;;;;;;4.13;3.73;;;23.40;59.40;;;;;;6235842;23;20362;-87
2021/09/27 23:31:21;;;;;;;4.20;3.80;;;23.40;59.30;;;;;;6234997;23;20443;-88
2021/09/27 23:33:50;;;;;;;3.97;3.67;;;23.50;59.30;;;;;;6234417;23;20373;-88
2021/09/27 23:36:16;;;;;;;4.07;3.33;;;23.50;59.30;;;;;;6235145;23;20500;-87
2021/09/27 23:38:44;;;;;;;3.73;3.43;;;23.50;59.30;;;;;;6235321;23;20373;-88
2021/09/27 23:41:10;;;;;;;4.10;3.70;;;23.50;59.20;;;;;;6261969;23;20465;-88
2021/09/27 23:43:36;;;;;;;4.23;3.87;;;23.50;59.20;;;;;;6262174;23;20378;-87
2021/09/27 23:46:02;;;;;;;3.50;3.20;;;23.50;59.20;;;;;;6234962;23;20158;-88
2021/09/27 23:48:27;;;;;;;2.50;2.30;;;23.50;59.20;;;;;;6233537;23;20162;-88
2021/09/27 23:50:56;;;;;;;3.63;3.33;;;23.50;59.10;;;;;;6261602;23;20678;-88
2021/09/27 23:53:23;;;;;;;5.13;3.07;;;23.50;59.10;;;;;;6262179;23;20143;-88
2021/09/27 23:55:49;;;;;;;4.00;3.53;;;23.50;59.10;;;;;;6262025;23;20369;-88
2021/09/27 23:58:15;;;;;;;4.90;3.80;;;23.50;59.20;;;;;;6236200;23;20373;-88
